»·PEaware :: N333ZS KRNM-KPSP

N333ZS :: KRNM-KPSP

FLIGHT INFORMATION

Flight Status: Arrived
Operator: Privately registered:
United States
More flights under this callsign
Pilot: Judd H. (29974)
Aircraft: CESSNA 182 SKYLANE
(C182)
More flights by this aircraft type
Origin: KRNM Ramona
United States
Destination: KPSP Palm Springs Intl
United States
More flights between these airports :: More routes between these airports
Route: +JLI TRM
File this flight plan on PilotEdge
Remarks:
Altitude:
(Current/Filed)
7,000ft
Speed:
(Current/Filed)
130kts
Departed: 10-Sep-20 08:36 AM
Arrived: 10-Sep-20 09:18 AM
Distance/Time
Traveled:
51nm/0:42
Distance/Time
To Go:
Arrived

Flight Plot

Page will automatically refresh every two minutes.

Flight plan parsing failed; only flown route is shown


Map Options




Map Legend


Flown Route
Filed Route
Departure Airport
Arrival Airport
Navaid (VOR, NDB)
Fix

Horizontal Profiles

Position Reports

Time Latitude Longitude Heading Altitude Ground
Speed
10-Sep-20 08:23 33.040619 -116.911386 187 1396ft 0kts
10-Sep-20 08:24 33.040619 -116.911386 187 1396ft 0kts
10-Sep-20 08:25 33.040619 -116.911386 187 1396ft 0kts
10-Sep-20 08:30 33.040612 -116.911387 187 1396ft 0kts
10-Sep-20 08:31 33.040610 -116.911388 187 1396ft 0kts
10-Sep-20 08:32 33.040609 -116.911388 187 1396ft 0kts
10-Sep-20 08:33 33.039055 -116.910240 95 1396ft 15kts
10-Sep-20 08:34 33.038519 -116.907294 171 1396ft 0kts
10-Sep-20 08:35 33.038499 -116.910312 280 1396ft 58kts
10-Sep-20 08:36 33.043326 -116.943078 288 2203ft 111kts
10-Sep-20 08:37 33.063924 -116.941578 77 3203ft 106kts
10-Sep-20 08:38 33.064805 -116.905100 93 4061ft 112kts
10-Sep-20 08:39 33.059331 -116.867789 86 4820ft 116kts
10-Sep-20 08:40 33.068512 -116.831592 67 5466ft 118kts
10-Sep-20 08:41 33.076854 -116.793989 77 6111ft 118kts
10-Sep-20 08:42 33.083010 -116.755242 67 6664ft 119kts
10-Sep-20 08:43 33.095472 -116.718829 64 7196ft 118kts
10-Sep-20 08:44 33.109977 -116.677872 66 6926ft 149kts
10-Sep-20 08:45 33.122225 -116.633460 67 6872ft 132kts
10-Sep-20 08:46 33.137527 -116.595215 53 7022ft 126kts
10-Sep-20 08:47 33.164749 -116.569482 33 7122ft 126kts
10-Sep-20 08:48 33.194318 -116.544495 32 7030ft 136kts
10-Sep-20 08:49 33.224871 -116.518845 38 6980ft 133kts
10-Sep-20 08:50 33.252027 -116.490404 42 7135ft 124kts
10-Sep-20 08:51 33.275972 -116.462122 39 7405ft 120kts
10-Sep-20 08:52 33.301816 -116.437617 36 7698ft 117kts
10-Sep-20 08:53 33.327793 -116.414336 35 7970ft 118kts
10-Sep-20 08:54 33.355727 -116.393439 27 8166ft 118kts
10-Sep-20 08:55 33.384928 -116.371743 32 8119ft 127kts
10-Sep-20 08:56 33.414517 -116.348708 15 8094ft 126kts
10-Sep-20 08:57 33.449721 -116.346667 1 8092ft 127kts
10-Sep-20 08:58 33.484982 -116.345679 5 8093ft 126kts
10-Sep-20 08:59 33.520302 -116.345045 2 8085ft 127kts
10-Sep-20 09:00 33.550166 -116.333040 84 7828ft 119kts
10-Sep-20 09:01 33.540402 -116.301419 43 6378ft 86kts
10-Sep-20 09:02 33.568941 -116.296804 342 4948ft 132kts
10-Sep-20 09:03 33.603816 -116.309266 344 3262ft 145kts
10-Sep-20 09:04 33.642119 -116.321607 344 3059ft 141kts
10-Sep-20 09:05 33.675391 -116.334859 343 2973ft 113kts
10-Sep-20 09:06 33.704911 -116.345486 345 3053ft 112kts
10-Sep-20 09:07 33.735209 -116.355021 337 3056ft 114kts
10-Sep-20 09:08 33.753719 -116.386413 305 3084ft 116kts
10-Sep-20 09:09 33.765569 -116.420485 288 2694ft 109kts
10-Sep-20 09:10 33.777324 -116.453086 308 2035ft 104kts
10-Sep-20 09:11 33.797417 -116.476563 338 1288ft 103kts
10-Sep-20 09:12 33.820352 -116.496754 324 777ft 108kts
10-Sep-20 09:13 33.835420 -116.482568 121 1608ft 124kts
10-Sep-20 09:14 33.812252 -116.449576 148 1794ft 130kts
10-Sep-20 09:15 33.797042 -116.475421 307 1592ft 84kts
10-Sep-20 09:17 33.814862 -116.491670 330 824ft 77kts
10-Sep-20 09:18 33.829422 -116.504483 328 480ft 18kts
10-Sep-20 09:19 33.829468 -116.503636 145 480ft 21kts
10-Sep-20 09:20 33.824113 -116.498729 143 480ft 21kts
10-Sep-20 09:21 33.823029 -116.498048 48 480ft 0kts

Navigation Log

Ident Type
Flight plan parsing failed, navigation log unavailable